createdAt,value
2022-12-29T00:01:51.407Z,7.10
2022-12-29T00:04:19.151Z,7.03
2022-12-29T00:06:47.181Z,6.83
2022-12-29T00:09:18.592Z,7.10
2022-12-29T00:11:46.352Z,7.33
2022-12-29T00:14:32.078Z,7.70
2022-12-29T00:16:59.737Z,7.63
2022-12-29T00:19:44.977Z,8.00
2022-12-29T00:22:31.168Z,7.33
2022-12-29T00:25:17.961Z,7.27
2022-12-29T00:28:07.256Z,6.97
2022-12-29T00:30:53.196Z,8.17
2022-12-29T00:33:40.399Z,7.67
2022-12-29T00:36:13.151Z,7.03
2022-12-29T00:39:05.104Z,7.27
2022-12-29T00:41:51.635Z,7.73
2022-12-29T00:44:19.480Z,7.63
2022-12-29T00:46:47.433Z,7.57
2022-12-29T00:49:33.337Z,7.30
2022-12-29T00:52:03.761Z,7.33
2022-12-29T00:54:33.856Z,6.90
2022-12-29T00:57:04.022Z,6.60
2022-12-29T00:59:31.715Z,6.43
2022-12-29T01:02:00.420Z,7.00
2022-12-29T01:04:28.661Z,7.13
2022-12-29T01:06:56.416Z,6.83
2022-12-29T01:09:42.063Z,6.90
2022-12-29T01:12:12.247Z,7.10
2022-12-29T01:14:40.415Z,6.93
2022-12-29T01:17:08.293Z,7.27
2022-12-29T01:19:36.093Z,6.93
2022-12-29T01:22:04.398Z,6.97
2022-12-29T01:24:32.085Z,6.83
2022-12-29T01:26:59.881Z,6.87
2022-12-29T01:29:29.013Z,6.90
2022-12-29T01:31:56.762Z,6.30
2022-12-29T01:34:24.453Z,6.70
2022-12-29T01:36:52.199Z,6.70
2022-12-29T01:39:19.860Z,7.07
2022-12-29T01:41:47.616Z,7.57
2022-12-29T01:44:56.179Z,7.90
2022-12-29T01:47:43.489Z,7.77
2022-12-29T01:50:14.457Z,7.77
2022-12-29T01:52:49.245Z,9.17
2022-12-29T01:55:17.824Z,8.37
2022-12-29T01:57:50.524Z,8.63
2022-12-29T02:00:20.605Z,8.70
2022-12-29T02:02:52.820Z,8.60
2022-12-29T02:05:27.547Z,8.10
2022-12-29T02:07:56.034Z,8.23
2022-12-29T02:10:27.794Z,7.67
2022-12-29T02:12:56.306Z,8.97
2022-12-29T02:15:33.551Z,7.23
2022-12-29T02:18:20.727Z,8.03
2022-12-29T02:21:23.676Z,8.20
2022-12-29T02:24:27.946Z,7.73
2022-12-29T02:27:33.715Z,7.47
2022-12-29T02:30:14.579Z,6.80
2022-12-29T02:32:52.480Z,6.90
2022-12-29T02:35:31.823Z,7.10
2022-12-29T02:38:10.595Z,6.60
2022-12-29T02:40:45.380Z,6.57
2022-12-29T02:43:24.021Z,6.53
2022-12-29T02:45:57.248Z,6.57
2022-12-29T02:48:32.626Z,6.47
2022-12-29T02:51:03.811Z,6.40
2022-12-29T02:53:51.331Z,6.13
2022-12-29T02:56:19.062Z,5.70
2022-12-29T02:58:46.890Z,6.50
2022-12-29T03:01:30.109Z,6.27
2022-12-29T03:04:12.658Z,5.43
2022-12-29T03:06:53.100Z,5.60
2022-12-29T03:09:32.841Z,5.63
2022-12-29T03:12:09.702Z,5.20
2022-12-29T03:15:04.326Z,4.93
2022-12-29T03:17:40.331Z,5.17
2022-12-29T03:20:13.981Z,5.17
2022-12-29T03:22:45.511Z,5.23
2022-12-29T03:25:19.760Z,4.77
2022-12-29T03:27:51.739Z,4.93
2022-12-29T03:30:20.330Z,5.10
2022-12-29T03:32:52.438Z,4.43
2022-12-29T03:35:25.010Z,4.37
2022-12-29T03:37:59.505Z,4.60
2022-12-29T03:40:29.395Z,4.60
2022-12-29T03:42:57.934Z,4.83
2022-12-29T03:45:25.919Z,4.50
2022-12-29T03:47:55.090Z,4.70
2022-12-29T03:50:24.200Z,4.30
2022-12-29T03:52:51.918Z,4.20
2022-12-29T03:55:19.614Z,4.53
2022-12-29T03:57:47.353Z,4.13
2022-12-29T04:00:16.622Z,4.50
2022-12-29T04:02:46.291Z,4.07
2022-12-29T04:05:14.410Z,3.70
2022-12-29T04:07:43.552Z,3.43
2022-12-29T04:10:11.424Z,3.40
2022-12-29T04:12:39.153Z,3.67
2022-12-29T04:15:07.924Z,3.40
2022-12-29T04:17:35.711Z,3.00
2022-12-29T04:20:17.339Z,3.10
2022-12-29T04:22:47.006Z,3.10
2022-12-29T04:25:14.904Z,3.10
2022-12-29T04:27:42.558Z,2.77
2022-12-29T04:30:11.608Z,3.20
2022-12-29T04:32:39.773Z,3.10
2022-12-29T04:35:08.123Z,2.90
2022-12-29T04:37:35.884Z,3.07
2022-12-29T04:40:05.498Z,3.00
2022-12-29T04:42:33.206Z,3.40
2022-12-29T04:45:00.946Z,2.93
2022-12-29T04:47:28.679Z,2.70
2022-12-29T04:49:56.452Z,3.27
2022-12-29T04:52:24.107Z,2.83
2022-12-29T04:54:51.936Z,2.60
2022-12-29T04:57:21.122Z,2.90
2022-12-29T04:59:48.889Z,2.70
2022-12-29T05:02:16.796Z,2.90
2022-12-29T05:04:46.893Z,2.87
2022-12-29T05:07:14.931Z,3.30
2022-12-29T05:09:42.645Z,3.20
2022-12-29T05:12:10.415Z,3.20
2022-12-29T05:14:39.568Z,3.30
2022-12-29T05:17:07.360Z,3.60
2022-12-29T05:19:35.385Z,3.37
2022-12-29T05:22:03.559Z,3.60
2022-12-29T05:24:31.262Z,3.63
2022-12-29T05:26:59.143Z,3.30
2022-12-29T05:29:26.829Z,3.30
2022-12-29T05:31:56.031Z,3.20
2022-12-29T05:34:23.707Z,2.93
2022-12-29T05:36:51.505Z,3.10
2022-12-29T05:39:19.289Z,3.00
2022-12-29T05:41:47.034Z,3.00
2022-12-29T05:44:15.149Z,3.30
2022-12-29T05:46:42.907Z,3.13
2022-12-29T05:49:12.070Z,3.47
2022-12-29T05:51:39.861Z,3.00
2022-12-29T05:54:07.883Z,3.17
2022-12-29T05:56:35.702Z,2.80
2022-12-29T05:59:03.403Z,3.00
2022-12-29T06:01:31.246Z,2.93
2022-12-29T06:03:59.187Z,3.60
2022-12-29T06:06:28.487Z,3.10
2022-12-29T06:08:56.525Z,3.30
2022-12-29T06:11:24.179Z,2.90
2022-12-29T06:13:51.962Z,3.40
2022-12-29T06:16:19.791Z,3.20
2022-12-29T06:18:47.593Z,3.27
2022-12-29T06:21:15.423Z,3.10
2022-12-29T06:23:44.571Z,3.00
2022-12-29T06:26:12.300Z,3.20
2022-12-29T06:28:39.997Z,3.30
2022-12-29T06:31:11.398Z,3.10
2022-12-29T06:33:39.370Z,2.80
2022-12-29T06:36:07.751Z,2.40
2022-12-29T06:38:36.185Z,2.40
2022-12-29T06:41:05.515Z,2.50
2022-12-29T06:43:34.813Z,2.10
2022-12-29T06:46:02.590Z,2.53
2022-12-29T06:48:30.285Z,2.20
2022-12-29T06:50:58.010Z,2.30
2022-12-29T06:53:25.752Z,2.40
2022-12-29T06:55:53.445Z,2.70
2022-12-29T06:58:22.575Z,2.90
2022-12-29T07:00:50.468Z,2.97
2022-12-29T07:03:18.248Z,3.00
2022-12-29T07:05:46.089Z,3.17
2022-12-29T07:08:13.827Z,3.10
2022-12-29T07:10:42.055Z,3.77
2022-12-29T07:13:09.840Z,4.13
2022-12-29T07:15:39.653Z,4.60
2022-12-29T07:18:07.469Z,4.30
2022-12-29T07:20:35.476Z,5.27
2022-12-29T07:23:04.062Z,5.97
2022-12-29T07:25:31.817Z,6.17
2022-12-29T07:27:59.567Z,4.00
2022-12-29T07:30:27.352Z,4.37
2022-12-29T07:32:56.461Z,3.77
2022-12-29T07:35:24.203Z,3.20
2022-12-29T07:37:51.998Z,4.17
2022-12-29T07:40:19.693Z,2.97
2022-12-29T07:42:47.484Z,4.67
2022-12-29T07:45:15.369Z,3.73
2022-12-29T07:47:43.149Z,4.00
2022-12-29T07:50:12.233Z,2.57
2022-12-29T07:52:39.956Z,4.07
2022-12-29T07:55:08.854Z,4.17
2022-12-29T07:57:36.520Z,4.00
2022-12-29T08:00:05.665Z,6.33
2022-12-29T08:02:33.515Z,4.70
2022-12-29T08:05:01.726Z,4.27
2022-12-29T08:07:30.894Z,6.60
2022-12-29T08:09:58.990Z,5.90
2022-12-29T08:12:26.815Z,5.83
2022-12-29T08:14:54.585Z,5.20
2022-12-29T08:17:22.507Z,4.90
2022-12-29T08:19:50.214Z,4.40
2022-12-29T08:22:17.893Z,4.37
2022-12-29T08:24:47.118Z,6.80
2022-12-29T08:27:20.384Z,5.37
2022-12-29T08:29:49.070Z,7.07
2022-12-29T08:32:16.869Z,6.30
2022-12-29T08:34:44.546Z,5.00
2022-12-29T08:37:12.291Z,6.13
2022-12-29T08:39:40.958Z,5.87
2022-12-29T08:42:10.026Z,5.57
2022-12-29T08:44:37.707Z,3.97
2022-12-29T08:47:05.957Z,3.57
2022-12-29T08:49:34.207Z,6.63
2022-12-29T08:52:01.912Z,8.60
2022-12-29T08:54:29.656Z,3.93
2022-12-29T08:56:57.381Z,3.20
2022-12-29T08:59:26.792Z,7.23
2022-12-29T09:01:54.580Z,7.23
2022-12-29T09:04:22.493Z,6.50
2022-12-29T09:06:50.267Z,7.23
2022-12-29T09:09:19.169Z,2.97
2022-12-29T09:11:47.060Z,4.17
2022-12-29T09:14:15.341Z,6.20
2022-12-29T09:17:01.945Z,4.00
2022-12-29T09:19:29.707Z,4.00
2022-12-29T09:21:57.557Z,2.33
2022-12-29T09:24:25.324Z,2.23
2022-12-29T09:26:53.027Z,2.70
2022-12-29T09:29:20.776Z,2.60
2022-12-29T09:31:49.927Z,2.40
2022-12-29T09:34:17.746Z,2.10
2022-12-29T09:36:45.429Z,2.20
2022-12-29T09:39:14.411Z,1.90
2022-12-29T09:41:47.292Z,2.47
2022-12-29T09:44:21.573Z,2.80
2022-12-29T09:46:54.221Z,2.13
2022-12-29T09:49:28.443Z,1.97
2022-12-29T09:52:01.145Z,2.20
2022-12-29T09:54:41.566Z,1.87
2022-12-29T09:57:18.764Z,2.30
2022-12-29T09:59:48.777Z,1.97
2022-12-29T10:02:31.324Z,1.63
2022-12-29T10:04:59.338Z,2.20
2022-12-29T10:07:36.428Z,2.70
2022-12-29T10:10:16.786Z,2.10
2022-12-29T10:12:58.021Z,1.70
2022-12-29T10:15:46.692Z,2.13
2022-12-29T10:18:29.682Z,2.17
2022-12-29T10:21:01.298Z,2.00
2022-12-29T10:23:31.747Z,2.30
2022-12-29T10:26:02.054Z,1.87
2022-12-29T10:28:37.493Z,2.07
2022-12-29T10:31:10.254Z,1.90
2022-12-29T10:33:44.031Z,2.00
2022-12-29T10:36:17.467Z,2.00
2022-12-29T10:38:54.460Z,1.93
2022-12-29T10:41:27.839Z,1.90
2022-12-29T10:43:58.727Z,2.50
2022-12-29T10:46:30.559Z,2.30
2022-12-29T10:48:59.716Z,2.37
2022-12-29T10:51:30.039Z,2.70
2022-12-29T10:54:01.583Z,2.27
2022-12-29T10:56:35.149Z,2.77
2022-12-29T10:59:10.860Z,2.20
2022-12-29T11:01:47.827Z,2.00
2022-12-29T11:04:35.565Z,2.70
2022-12-29T11:07:03.811Z,2.10
2022-12-29T11:09:42.686Z,1.90
2022-12-29T11:12:25.980Z,2.23
2022-12-29T11:15:14.807Z,1.90
2022-12-29T11:17:47.749Z,2.00
2022-12-29T11:20:31.240Z,2.00
2022-12-29T11:23:00.840Z,2.00
2022-12-29T11:25:28.939Z,2.00
2022-12-29T11:28:06.189Z,2.07
2022-12-29T11:30:38.420Z,1.70
2022-12-29T11:33:09.117Z,2.23
2022-12-29T11:35:44.694Z,1.70
2022-12-29T11:38:23.285Z,1.87
2022-12-29T11:40:52.263Z,2.63
2022-12-29T11:43:25.705Z,2.20
2022-12-29T11:45:57.571Z,2.40
2022-12-29T11:48:29.440Z,1.93
2022-12-29T11:51:01.419Z,1.70
2022-12-29T11:53:33.919Z,2.20
2022-12-29T11:56:04.114Z,1.60
2022-12-29T11:58:33.587Z,2.23
2022-12-29T12:01:06.109Z,2.10
2022-12-29T12:03:38.483Z,2.00
2022-12-29T12:06:12.254Z,2.43
2022-12-29T12:08:49.758Z,2.17
2022-12-29T12:11:22.516Z,2.43
2022-12-29T12:14:00.967Z,2.13
2022-12-29T12:16:35.247Z,2.30
2022-12-29T12:19:11.776Z,2.17
2022-12-29T12:21:45.740Z,1.90
2022-12-29T12:24:39.807Z,2.77
2022-12-29T12:27:17.383Z,2.13
2022-12-29T12:29:52.472Z,2.70
2022-12-29T12:32:25.253Z,2.20
2022-12-29T12:34:53.386Z,2.20
2022-12-29T12:37:41.489Z,2.93
2022-12-29T12:40:29.259Z,2.30
2022-12-29T12:43:15.132Z,2.30
2022-12-29T12:45:51.322Z,2.37
2022-12-29T12:48:46.572Z,2.27
2022-12-29T12:51:25.243Z,2.20
2022-12-29T12:54:08.939Z,2.10
2022-12-29T12:56:49.969Z,2.33
2022-12-29T12:59:31.930Z,2.50
2022-12-29T13:02:10.993Z,2.53
2022-12-29T13:05:05.548Z,2.30
2022-12-29T13:07:45.908Z,2.57
2022-12-29T13:10:31.278Z,2.27
2022-12-29T13:13:18.992Z,2.17
2022-12-29T13:15:57.617Z,2.00
2022-12-29T13:18:33.214Z,2.17
2022-12-29T13:21:08.264Z,1.90
2022-12-29T13:23:41.063Z,2.17
2022-12-29T13:26:16.881Z,2.43
2022-12-29T13:28:56.264Z,2.00
2022-12-29T13:31:34.627Z,2.27
2022-12-29T13:34:07.681Z,2.07
2022-12-29T13:36:40.113Z,2.40
2022-12-29T13:39:18.974Z,2.40
2022-12-29T13:41:53.361Z,1.90
2022-12-29T13:44:28.788Z,2.53
2022-12-29T13:47:02.143Z,2.43
2022-12-29T13:49:30.803Z,1.70
2022-12-29T13:52:01.376Z,2.40
2022-12-29T13:54:38.325Z,2.00
2022-12-29T13:57:12.510Z,2.70
2022-12-29T13:59:51.016Z,2.77
2022-12-29T14:02:29.388Z,2.27
2022-12-29T14:05:00.409Z,2.20
2022-12-29T14:07:28.672Z,2.37
2022-12-29T14:09:57.870Z,1.77
2022-12-29T14:12:38.210Z,2.33
2022-12-29T14:15:23.486Z,2.10
2022-12-29T14:18:15.842Z,2.70
2022-12-29T14:20:56.093Z,2.30
2022-12-29T14:23:38.869Z,2.60
2022-12-29T14:26:16.119Z,1.53
2022-12-29T14:28:47.357Z,2.03
2022-12-29T14:31:41.787Z,2.37
2022-12-29T14:34:30.449Z,2.90
2022-12-29T14:37:00.197Z,2.40
2022-12-29T14:39:35.235Z,2.03
2022-12-29T14:42:05.980Z,2.63
2022-12-29T14:44:35.553Z,2.00
2022-12-29T14:47:08.524Z,2.30
2022-12-29T14:49:44.147Z,2.10
2022-12-29T14:52:19.446Z,2.53
2022-12-29T14:54:55.954Z,3.90
2022-12-29T14:57:29.497Z,6.67
2022-12-29T15:00:06.678Z,4.07
2022-12-29T15:02:40.714Z,3.20
2022-12-29T15:05:30.175Z,7.83
2022-12-29T15:07:59.945Z,9.87
2022-12-29T15:10:34.222Z,7.37
2022-12-29T15:13:06.635Z,4.70
2022-12-29T15:15:40.424Z,3.47
2022-12-29T15:18:28.161Z,3.00
2022-12-29T15:20:59.105Z,2.80
2022-12-29T15:23:27.569Z,3.00
2022-12-29T15:25:58.148Z,2.40
2022-12-29T15:28:27.295Z,2.40
2022-12-29T15:30:59.116Z,2.93
2022-12-29T15:33:29.642Z,2.33
2022-12-29T15:35:59.001Z,2.37
2022-12-29T15:38:33.594Z,2.20
2022-12-29T15:41:07.481Z,2.83
2022-12-29T15:43:51.812Z,2.50
2022-12-29T15:46:21.558Z,2.77
2022-12-29T15:48:49.838Z,2.80
2022-12-29T15:51:22.153Z,2.80
2022-12-29T15:53:52.277Z,2.80
2022-12-29T15:56:21.286Z,2.97
2022-12-29T15:58:51.334Z,2.77
2022-12-29T16:01:23.203Z,2.67
2022-12-29T16:03:52.555Z,3.23
2022-12-29T16:06:31.090Z,2.57
2022-12-29T16:09:00.677Z,2.77
2022-12-29T16:11:33.101Z,2.93
2022-12-29T16:14:01.608Z,4.17
2022-12-29T16:16:33.622Z,3.30
2022-12-29T16:19:12.560Z,3.10
2022-12-29T16:21:40.495Z,2.83
2022-12-29T16:24:14.779Z,3.33
2022-12-29T16:26:49.159Z,2.93
2022-12-29T16:29:17.879Z,3.10
2022-12-29T16:32:01.281Z,3.77
2022-12-29T16:34:32.242Z,3.07
2022-12-29T16:37:01.460Z,2.93
2022-12-29T16:39:32.887Z,2.97
2022-12-29T16:42:00.880Z,3.03
2022-12-29T16:44:31.138Z,2.83
2022-12-29T16:47:24.493Z,3.07
2022-12-29T16:49:55.297Z,2.70
2022-12-29T16:52:27.494Z,3.40
2022-12-29T16:54:58.209Z,3.17
2022-12-29T16:57:29.645Z,3.40
2022-12-29T17:00:01.302Z,3.03
2022-12-29T17:02:33.332Z,2.70
2022-12-29T17:05:01.485Z,3.00
2022-12-29T17:07:30.150Z,3.70
2022-12-29T17:09:57.936Z,4.13
2022-12-29T17:12:29.799Z,3.63
2022-12-29T17:14:59.895Z,3.80
2022-12-29T17:17:34.553Z,3.40
2022-12-29T17:20:05.382Z,3.50
2022-12-29T17:22:34.164Z,5.97
2022-12-29T17:25:03.931Z,3.80
2022-12-29T17:27:35.672Z,3.57
2022-12-29T17:30:07.004Z,3.90
2022-12-29T17:32:36.062Z,3.77
2022-12-29T17:35:04.041Z,3.50
2022-12-29T17:37:37.463Z,3.23
2022-12-29T17:40:08.014Z,3.63
2022-12-29T17:42:39.764Z,3.37
2022-12-29T17:45:13.806Z,3.27
2022-12-29T17:47:42.944Z,3.13
2022-12-29T17:50:14.662Z,3.53
2022-12-29T17:52:43.854Z,3.27
2022-12-29T17:55:17.639Z,4.20
2022-12-29T17:57:45.636Z,3.73
2022-12-29T18:00:17.670Z,3.67
2022-12-29T18:02:47.125Z,3.87
2022-12-29T18:05:20.250Z,3.40
2022-12-29T18:07:48.255Z,4.03
2022-12-29T18:10:16.267Z,3.70
2022-12-29T18:12:46.448Z,3.40
2022-12-29T18:15:20.340Z,3.77
2022-12-29T18:17:50.431Z,3.53
2022-12-29T18:20:18.261Z,3.70
2022-12-29T18:22:46.007Z,3.63
2022-12-29T18:25:23.358Z,3.80
2022-12-29T18:27:51.260Z,4.10
2022-12-29T18:30:19.691Z,4.63
2022-12-29T18:32:48.962Z,4.00
2022-12-29T18:35:20.885Z,4.30
2022-12-29T18:37:48.560Z,4.33
2022-12-29T18:40:16.514Z,4.43
2022-12-29T18:42:44.203Z,4.93
2022-12-29T18:45:18.223Z,4.67
2022-12-29T18:47:46.035Z,3.80
2022-12-29T18:50:16.120Z,4.43
2022-12-29T18:52:44.274Z,4.37
2022-12-29T18:55:14.825Z,4.87
2022-12-29T18:57:42.652Z,4.93
2022-12-29T19:00:11.864Z,5.10
2022-12-29T19:02:39.909Z,5.23
2022-12-29T19:05:21.129Z,4.77
2022-12-29T19:07:48.805Z,5.17
2022-12-29T19:10:16.829Z,5.63
2022-12-29T19:12:44.733Z,29.80
2022-12-29T19:15:21.666Z,5.20
2022-12-29T19:18:01.962Z,5.23
2022-12-29T19:20:40.897Z,5.63
2022-12-29T19:23:10.865Z,5.10
2022-12-29T19:25:39.201Z,5.23
2022-12-29T19:28:07.963Z,5.00
2022-12-29T19:30:36.423Z,4.47
2022-12-29T19:33:09.747Z,5.33
2022-12-29T19:35:39.564Z,4.40
2022-12-29T19:38:07.712Z,4.33
2022-12-29T19:40:35.804Z,4.70
2022-12-29T19:43:03.846Z,4.50
2022-12-29T19:45:31.653Z,4.47
2022-12-29T19:47:59.360Z,3.70
2022-12-29T19:50:27.048Z,3.90
2022-12-29T19:53:04.850Z,4.17
2022-12-29T19:55:33.248Z,3.77
2022-12-29T19:58:00.956Z,3.80
2022-12-29T20:00:28.688Z,3.43
2022-12-29T20:02:56.633Z,2.47
2022-12-29T20:05:24.396Z,2.40
2022-12-29T20:07:52.122Z,1.97
2022-12-29T20:10:21.166Z,2.10
2022-12-29T20:12:48.956Z,1.80
2022-12-29T20:15:16.757Z,1.50
2022-12-29T20:20:34.809Z,1.70
2022-12-29T20:23:02.540Z,1.40
2022-12-29T20:25:44.765Z,1.90
2022-12-29T20:28:14.416Z,1.40
2022-12-29T20:30:42.127Z,1.50
2022-12-29T20:33:10.013Z,1.93
2022-12-29T20:35:38.640Z,1.70
2022-12-29T20:38:06.453Z,1.57
2022-12-29T20:40:42.295Z,2.00
2022-12-29T20:43:12.081Z,1.57
2022-12-29T20:45:40.212Z,1.90
2022-12-29T20:48:08.006Z,1.77
2022-12-29T20:50:35.656Z,2.03
2022-12-29T20:53:03.337Z,2.53
2022-12-29T20:55:31.050Z,2.40
2022-12-29T21:00:48.113Z,2.07
2022-12-29T21:03:16.001Z,2.17
2022-12-29T21:05:43.705Z,2.10
2022-12-29T21:08:11.878Z,2.20
2022-12-29T21:10:39.693Z,2.30
2022-12-29T21:13:08.795Z,2.37
2022-12-29T21:15:36.460Z,2.70
2022-12-29T21:18:04.286Z,2.93
2022-12-29T21:20:32.388Z,2.50
2022-12-29T21:23:01.097Z,2.63
2022-12-29T21:25:36.814Z,2.80
2022-12-29T21:28:05.232Z,3.00
2022-12-29T21:30:35.194Z,3.00
2022-12-29T21:33:02.994Z,2.63
2022-12-29T21:35:30.699Z,2.57
2022-12-29T21:37:58.377Z,2.90
2022-12-29T21:40:26.175Z,2.43
2022-12-29T21:42:53.958Z,2.57
2022-12-29T21:45:27.675Z,2.50
2022-12-29T21:48:17.281Z,2.50
2022-12-29T21:51:00.868Z,2.60
2022-12-29T21:53:38.690Z,2.50
2022-12-29T21:56:08.609Z,1.90
2022-12-29T21:58:54.920Z,2.17
2022-12-29T22:01:40.983Z,1.90
2022-12-29T22:04:30.828Z,2.40
2022-12-29T22:07:16.177Z,2.33
2022-12-29T22:10:01.468Z,2.93
2022-12-29T22:12:48.965Z,2.67
2022-12-29T22:15:17.103Z,2.67
2022-12-29T22:17:48.851Z,2.83
2022-12-29T22:20:18.980Z,2.30
2022-12-29T22:22:47.007Z,2.70
2022-12-29T22:25:15.188Z,3.30
2022-12-29T22:27:43.044Z,3.23
2022-12-29T22:30:11.572Z,3.93
2022-12-29T22:32:39.557Z,3.33
2022-12-29T22:35:08.671Z,3.73
2022-12-29T22:37:39.574Z,3.57
2022-12-29T22:40:09.728Z,3.50
2022-12-29T22:42:37.937Z,4.50
2022-12-29T22:45:06.083Z,4.50
2022-12-29T22:47:33.818Z,3.93
2022-12-29T22:50:01.535Z,3.93
2022-12-29T22:52:29.357Z,4.60
2022-12-29T22:55:04.609Z,4.20
2022-12-29T22:57:34.291Z,4.33
2022-12-29T23:00:02.460Z,3.70
2022-12-29T23:02:30.550Z,4.53
2022-12-29T23:05:03.467Z,4.57
2022-12-29T23:07:32.184Z,3.83
2022-12-29T23:10:01.457Z,5.00
2022-12-29T23:12:30.895Z,3.93
2022-12-29T23:14:58.636Z,4.10
2022-12-29T23:17:26.328Z,4.40
2022-12-29T23:19:54.689Z,3.97
2022-12-29T23:22:23.255Z,3.63
2022-12-29T23:24:50.932Z,4.00
2022-12-29T23:27:19.989Z,4.53
2022-12-29T23:29:47.713Z,4.17
2022-12-29T23:32:15.624Z,4.03
2022-12-29T23:34:43.379Z,4.63
2022-12-29T23:37:11.103Z,4.20
2022-12-29T23:39:38.854Z,3.50
2022-12-29T23:42:06.944Z,3.93
2022-12-29T23:44:36.217Z,4.10
2022-12-29T23:47:04.166Z,4.13
2022-12-29T23:49:32.101Z,4.30
2022-12-29T23:51:59.782Z,4.20
2022-12-29T23:54:27.496Z,4.77
2022-12-29T23:56:55.197Z,4.40
2022-12-29T23:59:22.995Z,4.93
